createdAt,value
2018-07-13T00:02:08.508Z,21.68
2018-07-13T00:04:37.491Z,21.67
2018-07-13T00:07:06.587Z,21.64
2018-07-13T00:09:35.686Z,21.58
2018-07-13T00:12:04.757Z,21.56
2018-07-13T00:14:33.784Z,21.54
2018-07-13T00:17:02.769Z,21.57
2018-07-13T00:19:31.720Z,21.63
2018-07-13T00:22:00.688Z,21.67
2018-07-13T00:24:29.704Z,21.72
2018-07-13T00:26:59.780Z,21.72
2018-07-13T00:29:28.796Z,21.73
2018-07-13T00:31:57.748Z,21.74
2018-07-13T00:34:26.720Z,21.75
2018-07-13T00:36:55.682Z,21.78
2018-07-13T00:39:24.706Z,21.78
2018-07-13T00:41:53.733Z,21.75
2018-07-13T00:44:22.820Z,21.74
2018-07-13T00:46:51.905Z,21.71
2018-07-13T00:49:21.011Z,21.73
2018-07-13T00:51:50.058Z,21.74
2018-07-13T00:54:19.116Z,21.74
2018-07-13T00:56:48.161Z,21.75
2018-07-13T00:59:17.240Z,21.75
2018-07-13T01:01:46.273Z,21.67
2018-07-13T01:04:15.293Z,21.62
2018-07-13T01:06:44.317Z,21.58
2018-07-13T01:09:13.292Z,21.54
2018-07-13T01:11:42.301Z,21.54
2018-07-13T01:14:11.336Z,21.51
2018-07-13T01:16:40.308Z,21.48
2018-07-13T01:19:09.336Z,21.39
2018-07-13T01:21:38.296Z,21.31
2018-07-13T01:24:07.622Z,21.25
2018-07-13T01:26:36.649Z,21.24
2018-07-13T01:29:05.627Z,21.20
2018-07-13T01:31:34.664Z,21.15
2018-07-13T01:34:03.692Z,21.17
2018-07-13T01:36:32.711Z,21.16
2018-07-13T01:39:01.813Z,21.16
2018-07-13T01:41:30.896Z,21.13
2018-07-13T01:43:59.911Z,21.11
2018-07-13T01:46:28.974Z,21.05
2018-07-13T01:48:57.995Z,21.03
2018-07-13T01:51:26.960Z,20.98
2018-07-13T01:53:55.937Z,20.93
2018-07-13T01:56:25.013Z,20.88
2018-07-13T01:58:54.052Z,20.83
2018-07-13T02:01:23.062Z,20.82
2018-07-13T02:03:52.082Z,20.77
2018-07-13T02:06:21.185Z,20.74
2018-07-13T02:08:50.159Z,20.71
2018-07-13T02:11:19.130Z,20.70
2018-07-13T02:13:48.204Z,20.70
2018-07-13T02:16:17.350Z,20.69
2018-07-13T02:18:46.307Z,20.69
2018-07-13T02:21:15.258Z,20.66
2018-07-13T02:23:44.241Z,20.70
2018-07-13T02:26:13.280Z,20.71
2018-07-13T02:28:42.356Z,20.70
2018-07-13T02:31:11.369Z,20.66
2018-07-13T02:33:40.523Z,20.66
2018-07-13T02:36:09.521Z,20.67
2018-07-13T02:38:38.479Z,20.64
2018-07-13T02:41:07.573Z,20.63
2018-07-13T02:43:36.520Z,20.63
2018-07-13T02:46:05.557Z,20.64
2018-07-13T02:48:34.565Z,20.61
2018-07-13T02:51:03.528Z,20.63
2018-07-13T02:53:32.523Z,20.61
2018-07-13T02:56:01.591Z,20.60
2018-07-13T02:58:30.563Z,20.62
2018-07-13T03:00:59.569Z,20.64
2018-07-13T03:03:28.625Z,20.65
2018-07-13T03:05:57.581Z,20.67
2018-07-13T03:08:26.673Z,20.70
2018-07-13T03:10:55.628Z,20.72
2018-07-13T03:13:24.584Z,20.75
2018-07-13T03:15:53.664Z,20.83
2018-07-13T03:18:22.632Z,20.86
2018-07-13T03:20:51.666Z,20.93
2018-07-13T03:23:20.717Z,21.01
2018-07-13T03:25:49.814Z,21.11
2018-07-13T03:28:18.889Z,21.21
2018-07-13T03:30:47.901Z,21.30
2018-07-13T03:33:16.944Z,21.43
2018-07-13T03:35:45.907Z,21.60
2018-07-13T03:38:14.935Z,21.73
2018-07-13T03:40:43.932Z,21.91
2018-07-13T03:43:12.953Z,22.07
2018-07-13T03:45:41.916Z,22.26
2018-07-13T03:48:10.913Z,22.39
2018-07-13T03:50:39.953Z,22.54
2018-07-13T03:53:08.961Z,22.66
2018-07-13T03:55:37.929Z,22.90
2018-07-13T03:58:06.883Z,23.29
2018-07-13T04:00:36.069Z,23.43
2018-07-13T04:03:05.019Z,23.52
2018-07-13T04:05:34.889Z,23.60
2018-07-13T04:08:04.220Z,23.72
2018-07-13T04:10:33.303Z,24.15
2018-07-13T04:13:02.354Z,24.91
2018-07-13T04:15:31.324Z,26.31
2018-07-13T04:18:00.343Z,28.13
2018-07-13T04:20:29.488Z,29.35
2018-07-13T04:22:58.516Z,30.48
2018-07-13T04:25:27.540Z,31.67
2018-07-13T04:27:56.535Z,32.69
2018-07-13T04:30:25.528Z,33.55
2018-07-13T04:32:54.459Z,34.43
2018-07-13T04:35:23.458Z,35.30
2018-07-13T04:37:52.459Z,36.14
2018-07-13T04:40:21.459Z,36.56
2018-07-13T04:42:50.493Z,36.81
2018-07-13T04:45:19.574Z,37.23
2018-07-13T04:47:48.549Z,37.01
2018-07-13T04:50:17.599Z,37.24
2018-07-13T04:52:46.664Z,37.48
2018-07-13T04:55:15.652Z,37.91
2018-07-13T04:57:44.616Z,38.42
2018-07-13T05:00:13.622Z,38.08
2018-07-13T05:02:42.591Z,38.27
2018-07-13T05:05:11.664Z,38.40
2018-07-13T05:07:40.656Z,38.65
2018-07-13T05:10:09.921Z,38.22
2018-07-13T05:12:38.946Z,37.69
2018-07-13T05:15:08.808Z,37.41
2018-07-13T05:17:37.852Z,37.02
2018-07-13T05:20:06.853Z,37.14
2018-07-13T05:22:36.607Z,37.95
2018-07-13T05:25:06.341Z,38.14
2018-07-13T05:27:35.339Z,38.43
2018-07-13T05:30:04.725Z,38.99
2018-07-13T05:32:33.820Z,39.10
2018-07-13T05:35:02.812Z,39.47
2018-07-13T05:37:32.165Z,39.53
2018-07-13T05:40:02.509Z,39.41
2018-07-13T05:42:31.533Z,40.21
2018-07-13T05:45:00.525Z,40.46
2018-07-13T05:47:29.536Z,40.97
2018-07-13T05:49:58.516Z,40.53
2018-07-13T05:52:27.517Z,41.06
2018-07-13T05:54:56.753Z,41.54
2018-07-13T05:57:25.803Z,41.50
2018-07-13T05:59:54.850Z,41.26
2018-07-13T06:02:23.907Z,41.61
2018-07-13T06:04:52.914Z,42.11
2018-07-13T06:07:21.951Z,41.71
2018-07-13T06:09:50.985Z,41.95
2018-07-13T06:12:20.008Z,40.88
2018-07-13T06:14:49.009Z,40.45
2018-07-13T06:17:18.021Z,39.84
2018-07-13T06:19:47.055Z,39.22
2018-07-13T06:22:16.068Z,38.91
2018-07-13T06:24:45.102Z,39.25
2018-07-13T06:27:14.064Z,39.85
2018-07-13T06:29:43.043Z,39.61
2018-07-13T06:32:12.068Z,39.91
2018-07-13T06:34:41.040Z,39.38
2018-07-13T06:37:10.087Z,38.75
2018-07-13T06:39:39.092Z,38.80
2018-07-13T06:42:08.194Z,38.40
2018-07-13T06:44:37.210Z,37.58
2018-07-13T06:47:06.327Z,35.93
2018-07-13T06:49:35.292Z,35.55
2018-07-13T06:52:04.243Z,35.79
2018-07-13T06:54:33.244Z,36.50
2018-07-13T06:57:02.205Z,36.80
2018-07-13T06:59:31.187Z,37.45
2018-07-13T07:02:00.160Z,36.98
2018-07-13T07:04:37.837Z,35.61
2018-07-13T07:07:18.226Z,34.88
2018-07-13T07:09:50.900Z,34.17
2018-07-13T07:12:29.596Z,33.45
2018-07-13T07:14:58.609Z,33.98
2018-07-13T07:17:27.572Z,33.15
2018-07-13T07:19:56.539Z,32.87
2018-07-13T07:22:25.510Z,33.25
2018-07-13T07:24:54.468Z,33.50
2018-07-13T07:27:23.440Z,33.83
2018-07-13T07:29:52.392Z,34.08
2018-07-13T07:32:21.392Z,34.57
2018-07-13T07:34:50.359Z,34.92
2018-07-13T07:37:19.305Z,35.32
2018-07-13T07:39:48.297Z,35.80
2018-07-13T07:42:17.257Z,35.38
2018-07-13T07:44:46.336Z,35.71
2018-07-13T07:47:15.435Z,35.90
2018-07-13T07:49:44.475Z,36.59
2018-07-13T07:52:13.440Z,36.85
2018-07-13T07:54:42.776Z,36.52
2018-07-13T07:57:12.293Z,35.84
2018-07-13T07:59:41.270Z,35.34
2018-07-13T08:02:10.241Z,34.85
2018-07-13T08:04:39.211Z,34.77
2018-07-13T08:07:08.507Z,34.38
2018-07-13T08:09:37.812Z,34.41
2018-07-13T08:12:06.828Z,34.26
2018-07-13T08:14:35.914Z,34.45
2018-07-13T08:17:04.796Z,34.35
2018-07-13T08:19:33.778Z,33.99
2018-07-13T08:22:08.340Z,33.89
2018-07-13T08:24:37.368Z,33.54
2018-07-13T08:27:07.402Z,33.42
2018-07-13T08:29:40.572Z,33.30
2018-07-13T08:32:09.581Z,33.20
2018-07-13T08:34:38.624Z,32.93
2018-07-13T08:37:08.354Z,33.07
2018-07-13T08:39:37.401Z,33.03
2018-07-13T08:42:06.429Z,33.25
2018-07-13T08:44:35.494Z,33.24
2018-07-13T08:47:04.540Z,33.22
2018-07-13T08:49:34.349Z,33.05
2018-07-13T08:52:03.388Z,33.04
2018-07-13T08:54:33.412Z,32.77
2018-07-13T08:57:02.479Z,32.62
2018-07-13T08:59:31.514Z,32.78
2018-07-13T09:02:00.616Z,32.91
2018-07-13T09:04:29.812Z,33.02
2018-07-13T09:06:58.886Z,33.01
2018-07-13T09:09:27.944Z,32.80
2018-07-13T09:11:57.724Z,32.84
2018-07-13T09:14:26.779Z,33.07
2018-07-13T09:16:56.257Z,33.05
2018-07-13T09:19:25.269Z,33.09
2018-07-13T09:21:54.245Z,33.01
2018-07-13T09:24:23.271Z,33.28
2018-07-13T09:26:52.231Z,33.55
2018-07-13T09:29:21.188Z,33.73
2018-07-13T09:31:50.162Z,33.86
2018-07-13T09:34:19.125Z,33.84
2018-07-13T09:36:48.093Z,34.10
2018-07-13T09:39:17.061Z,34.20
2018-07-13T09:41:46.098Z,33.90
2018-07-13T09:44:15.058Z,33.70
2018-07-13T09:46:44.025Z,33.45
2018-07-13T09:49:13.013Z,33.44
2018-07-13T09:51:41.986Z,33.69
2018-07-13T09:54:11.104Z,33.77
2018-07-13T09:56:39.994Z,34.16
2018-07-13T09:59:09.001Z,34.28
2018-07-13T10:01:37.987Z,34.81
2018-07-13T10:04:06.985Z,34.68
2018-07-13T10:06:35.964Z,34.98
2018-07-13T10:09:05.988Z,35.25
2018-07-13T10:11:34.966Z,35.32
2018-07-13T10:14:03.968Z,35.49
2018-07-13T10:16:32.960Z,35.71
2018-07-13T10:19:01.986Z,35.81
2018-07-13T10:21:31.888Z,36.24
2018-07-13T10:24:00.860Z,36.31
2018-07-13T10:26:35.479Z,36.21
2018-07-13T10:29:07.119Z,36.04
2018-07-13T10:31:36.361Z,36.19
2018-07-13T10:34:07.426Z,36.08
2018-07-13T10:36:40.366Z,36.06
2018-07-13T10:39:10.446Z,35.86
2018-07-13T10:41:39.617Z,36.29
2018-07-13T10:44:08.591Z,37.00
2018-07-13T10:46:37.576Z,37.13
2018-07-13T10:49:06.545Z,37.08
2018-07-13T10:51:35.589Z,36.81
2018-07-13T10:54:04.557Z,37.11
2018-07-13T10:56:33.553Z,37.32
2018-07-13T10:59:02.567Z,37.60
2018-07-13T11:01:31.541Z,38.44
2018-07-13T11:04:00.528Z,38.64
2018-07-13T11:06:29.517Z,38.65
2018-07-13T11:08:58.473Z,39.06
2018-07-13T11:11:27.470Z,39.08
2018-07-13T11:13:56.575Z,38.95
2018-07-13T11:16:25.513Z,38.71
2018-07-13T11:18:54.462Z,38.98
2018-07-13T11:21:23.446Z,38.62
2018-07-13T11:23:52.430Z,38.41
2018-07-13T11:26:21.429Z,38.62
2018-07-13T11:28:50.428Z,38.72
2018-07-13T11:31:19.392Z,38.54
2018-07-13T11:33:48.456Z,38.57
2018-07-13T11:36:17.492Z,38.14
2018-07-13T11:38:46.548Z,38.11
2018-07-13T11:41:15.601Z,38.27
2018-07-13T11:43:44.566Z,39.00
2018-07-13T11:46:13.661Z,39.32
2018-07-13T11:48:42.685Z,39.56
2018-07-13T11:51:12.122Z,39.92
2018-07-13T11:53:41.329Z,38.84
2018-07-13T11:56:10.287Z,39.13
2018-07-13T11:58:39.309Z,39.71
2018-07-13T12:01:08.528Z,40.07
2018-07-13T12:03:37.555Z,40.50
2018-07-13T12:06:06.588Z,39.75
2018-07-13T12:08:35.547Z,39.71
2018-07-13T12:11:04.578Z,39.89
2018-07-13T12:13:33.523Z,39.51
2018-07-13T12:16:02.593Z,38.91
2018-07-13T12:18:31.623Z,38.84
2018-07-13T12:21:00.651Z,38.25
2018-07-13T12:23:29.633Z,37.74
2018-07-13T12:25:58.591Z,37.83
2018-07-13T12:28:27.625Z,38.32
2018-07-13T12:30:56.570Z,37.16
2018-07-13T12:33:25.612Z,36.93
2018-07-13T12:35:54.568Z,36.28
2018-07-13T12:38:23.641Z,36.74
2018-07-13T12:40:52.747Z,36.13
2018-07-13T12:43:21.769Z,35.76
2018-07-13T12:45:50.819Z,36.35
2018-07-13T12:48:19.823Z,37.65
2018-07-13T12:50:48.912Z,37.35
2018-07-13T12:53:17.876Z,37.45
2018-07-13T12:55:46.834Z,36.99
2018-07-13T12:58:15.794Z,36.39
2018-07-13T13:00:44.949Z,36.05
2018-07-13T13:03:13.992Z,36.74
2018-07-13T13:05:43.017Z,37.87
2018-07-13T13:08:11.997Z,38.36
2018-07-13T13:10:40.956Z,38.99
2018-07-13T13:13:09.991Z,38.59
2018-07-13T13:15:39.095Z,38.06
2018-07-13T13:18:08.117Z,37.14
2018-07-13T13:20:37.173Z,36.90
2018-07-13T13:23:06.197Z,37.25
2018-07-13T13:25:35.238Z,38.12
2018-07-13T13:28:04.199Z,39.16
2018-07-13T13:30:33.382Z,39.82
2018-07-13T13:33:02.565Z,40.10
2018-07-13T13:35:31.570Z,39.48
2018-07-13T13:38:00.518Z,39.57
2018-07-13T13:40:29.465Z,39.26
2018-07-13T13:42:58.609Z,38.73
2018-07-13T13:45:27.560Z,38.39
2018-07-13T13:47:56.653Z,38.73
2018-07-13T13:50:25.754Z,39.65
2018-07-13T13:52:54.709Z,39.10
2018-07-13T13:55:23.760Z,38.80
2018-07-13T13:57:52.777Z,37.95
2018-07-13T14:00:21.889Z,37.40
2018-07-13T14:02:50.871Z,36.66
2018-07-13T14:05:20.009Z,35.79
2018-07-13T14:07:48.940Z,35.01
2018-07-13T14:10:17.997Z,34.53
2018-07-13T14:12:47.102Z,34.06
2018-07-13T14:15:16.143Z,33.69
2018-07-13T14:17:45.286Z,33.16
2018-07-13T14:20:14.353Z,32.84
2018-07-13T14:22:43.485Z,32.35
2018-07-13T14:25:12.506Z,32.38
2018-07-13T14:27:41.475Z,32.30
2018-07-13T14:30:10.516Z,32.14
2018-07-13T14:32:39.479Z,32.05
2018-07-13T14:35:08.570Z,31.94
2018-07-13T14:37:37.570Z,31.87
2018-07-13T14:40:06.622Z,31.64
2018-07-13T14:42:35.565Z,31.49
2018-07-13T14:45:04.613Z,31.45
2018-07-13T14:47:33.589Z,31.43
2018-07-13T14:50:02.600Z,31.34
2018-07-13T14:52:31.646Z,31.30
2018-07-13T14:55:00.665Z,31.11
2018-07-13T14:57:29.750Z,31.07
2018-07-13T14:59:58.826Z,30.96
2018-07-13T15:02:27.889Z,30.86
2018-07-13T15:04:56.888Z,30.71
2018-07-13T15:07:25.910Z,30.73
2018-07-13T15:09:54.985Z,30.67
2018-07-13T15:12:23.938Z,30.69
2018-07-13T15:14:52.949Z,30.80
2018-07-13T15:17:22.043Z,30.83
2018-07-13T15:19:51.072Z,30.74
2018-07-13T15:22:20.057Z,30.63
2018-07-13T15:24:48.985Z,30.54
2018-07-13T15:27:18.057Z,30.52
2018-07-13T15:29:47.029Z,30.46
2018-07-13T15:32:16.057Z,30.34
2018-07-13T15:34:45.037Z,30.28
2018-07-13T15:37:14.114Z,30.27
2018-07-13T15:39:43.086Z,30.27
2018-07-13T15:42:12.089Z,30.28
2018-07-13T15:44:41.129Z,30.19
2018-07-13T15:47:10.089Z,30.11
2018-07-13T15:49:39.153Z,30.07
2018-07-13T15:52:08.204Z,30.06
2018-07-13T15:54:37.207Z,30.04
2018-07-13T15:57:06.191Z,29.97
2018-07-13T15:59:35.208Z,29.91
2018-07-13T16:02:04.217Z,29.86
2018-07-13T16:04:33.307Z,29.81
2018-07-13T16:07:02.733Z,29.75
2018-07-13T16:09:31.815Z,29.66
2018-07-13T16:12:01.009Z,29.70
2018-07-13T16:14:30.066Z,29.71
2018-07-13T16:16:59.029Z,29.66
2018-07-13T16:19:27.987Z,29.62
2018-07-13T16:21:57.011Z,29.57
2018-07-13T16:24:26.094Z,29.48
2018-07-13T16:26:55.085Z,29.40
2018-07-13T16:29:24.106Z,29.34
2018-07-13T16:31:53.308Z,29.35
2018-07-13T16:34:22.287Z,29.29
2018-07-13T16:36:51.441Z,29.20
2018-07-13T16:39:20.461Z,29.15
2018-07-13T16:41:49.536Z,29.02
2018-07-13T16:44:18.632Z,28.90
2018-07-13T16:46:47.591Z,28.79
2018-07-13T16:49:16.571Z,28.67
2018-07-13T16:51:45.737Z,28.63
2018-07-13T16:54:14.767Z,28.59
2018-07-13T16:56:44.881Z,28.50
2018-07-13T16:59:13.905Z,28.42
2018-07-13T17:01:42.853Z,28.32
2018-07-13T17:04:11.804Z,28.24
2018-07-13T17:06:40.840Z,28.19
2018-07-13T17:09:09.987Z,28.09
2018-07-13T17:11:39.121Z,27.96
2018-07-13T17:14:08.136Z,27.88
2018-07-13T17:16:37.240Z,27.81
2018-07-13T17:19:06.256Z,27.68
2018-07-13T17:21:35.245Z,27.39
2018-07-13T17:24:04.281Z,27.51
2018-07-13T17:26:33.246Z,27.42
2018-07-13T17:29:02.483Z,27.37
2018-07-13T17:31:31.546Z,27.28
2018-07-13T17:34:00.568Z,27.23
2018-07-13T17:36:29.577Z,27.17
2018-07-13T17:38:58.548Z,27.10
2018-07-13T17:41:27.629Z,27.02
2018-07-13T17:43:56.717Z,26.94
2018-07-13T17:46:25.868Z,26.85
2018-07-13T17:48:54.952Z,26.78
2018-07-13T17:51:24.061Z,26.70
2018-07-13T17:53:53.176Z,26.59
2018-07-13T17:56:22.205Z,26.54
2018-07-13T17:58:51.317Z,26.50
2018-07-13T18:01:20.495Z,26.45
2018-07-13T18:03:50.104Z,26.40
2018-07-13T18:06:19.113Z,26.33
2018-07-13T18:08:48.139Z,26.27
2018-07-13T18:11:17.168Z,26.24
2018-07-13T18:13:46.164Z,26.26
2018-07-13T18:16:15.204Z,26.33
2018-07-13T18:18:44.160Z,26.28
2018-07-13T18:21:13.253Z,26.25
2018-07-13T18:23:42.236Z,26.22
2018-07-13T18:26:11.325Z,26.15
2018-07-13T18:28:40.367Z,26.09
2018-07-13T18:31:09.465Z,26.02
2018-07-13T18:33:38.451Z,25.97
2018-07-13T18:36:07.493Z,25.94
2018-07-13T18:38:36.534Z,25.96
2018-07-13T18:41:05.717Z,25.91
2018-07-13T18:43:34.859Z,25.92
2018-07-13T18:46:04.265Z,26.01
2018-07-13T18:48:33.354Z,26.02
2018-07-13T18:51:02.571Z,26.03
2018-07-13T18:53:32.602Z,26.05
2018-07-13T18:56:02.476Z,26.00
2018-07-13T18:58:33.165Z,25.96
2018-07-13T19:01:02.541Z,25.92
2018-07-13T19:03:31.556Z,25.89
2018-07-13T19:06:00.556Z,25.84
2018-07-13T19:08:29.576Z,25.81
2018-07-13T19:10:58.677Z,25.75
2018-07-13T19:13:27.808Z,25.78
2018-07-13T19:15:56.901Z,25.80
2018-07-13T19:18:25.895Z,25.75
2018-07-13T19:20:54.990Z,25.72
2018-07-13T19:23:24.009Z,25.66
2018-07-13T19:25:53.113Z,25.62
2018-07-13T19:28:22.102Z,25.61
2018-07-13T19:30:51.168Z,25.58
2018-07-13T19:33:20.264Z,25.57
2018-07-13T19:35:49.347Z,25.50
2018-07-13T19:38:18.430Z,25.45
2018-07-13T19:40:47.417Z,25.42
2018-07-13T19:43:16.545Z,25.41
2018-07-13T19:45:45.557Z,25.34
2018-07-13T19:48:14.539Z,25.27
2018-07-13T19:50:43.511Z,25.26
2018-07-13T19:53:12.499Z,25.20
2018-07-13T19:55:41.649Z,25.15
2018-07-13T19:58:10.739Z,25.13
2018-07-13T20:00:39.877Z,25.06
2018-07-13T20:03:08.933Z,25.10
2018-07-13T20:05:37.998Z,25.10
2018-07-13T20:08:07.128Z,25.09
2018-07-13T20:10:36.094Z,25.07
2018-07-13T20:13:05.159Z,25.04
2018-07-13T20:15:34.252Z,25.09
2018-07-13T20:18:03.361Z,25.04
2018-07-13T20:20:32.322Z,25.00
2018-07-13T20:23:01.296Z,24.99
2018-07-13T20:25:30.263Z,24.99
2018-07-13T20:27:59.247Z,24.99
2018-07-13T20:30:28.286Z,24.96
2018-07-13T20:32:57.312Z,24.92
2018-07-13T20:35:26.439Z,24.90
2018-07-13T20:37:55.431Z,24.94
2018-07-13T20:40:24.449Z,24.94
2018-07-13T20:42:53.496Z,24.94
2018-07-13T20:45:22.488Z,24.88
2018-07-13T20:47:51.506Z,24.85
2018-07-13T20:50:20.484Z,24.83
2018-07-13T20:52:49.605Z,24.82
2018-07-13T20:55:18.646Z,24.81
2018-07-13T20:57:47.726Z,24.85
2018-07-13T21:00:16.858Z,24.90
2018-07-13T21:02:45.952Z,24.96
2018-07-13T21:05:14.932Z,25.01
2018-07-13T21:07:43.921Z,25.01
2018-07-13T21:10:13.070Z,25.03
2018-07-13T21:12:42.091Z,25.06
2018-07-13T21:15:11.133Z,25.12
2018-07-13T21:17:40.155Z,25.13
2018-07-13T21:20:09.289Z,25.11
2018-07-13T21:22:39.339Z,25.11
2018-07-13T21:25:08.299Z,25.09
2018-07-13T21:27:37.401Z,25.09
2018-07-13T21:30:06.449Z,24.98
2018-07-13T21:32:35.416Z,24.92
2018-07-13T21:35:04.462Z,24.86
2018-07-13T21:37:33.444Z,24.74
2018-07-13T21:40:02.502Z,24.67
2018-07-13T21:42:31.572Z,24.59
2018-07-13T21:45:00.698Z,24.52
2018-07-13T21:47:29.734Z,24.50
2018-07-13T21:49:58.768Z,24.44
2018-07-13T21:52:27.729Z,24.42
2018-07-13T21:54:56.776Z,24.41
2018-07-13T21:57:25.772Z,24.37
2018-07-13T21:59:54.785Z,24.31
2018-07-13T22:02:23.915Z,24.24
2018-07-13T22:04:52.975Z,24.26
2018-07-13T22:07:22.054Z,24.20
2018-07-13T22:09:51.044Z,24.17
2018-07-13T22:12:19.992Z,24.20
2018-07-13T22:14:49.029Z,24.23
2018-07-13T22:17:18.009Z,24.20
2018-07-13T22:19:47.033Z,24.14
2018-07-13T22:22:15.995Z,24.05
2018-07-13T22:24:44.981Z,23.82
2018-07-13T22:27:14.021Z,23.66
2018-07-13T22:29:43.006Z,23.54
2018-07-13T22:32:12.061Z,23.41
2018-07-13T22:34:41.085Z,23.27
2018-07-13T22:37:10.283Z,23.14
2018-07-13T22:39:39.333Z,23.02
2018-07-13T22:42:08.312Z,22.91
2018-07-13T22:44:37.308Z,22.83
2018-07-13T22:47:06.488Z,22.74
2018-07-13T22:49:35.537Z,22.65
2018-07-13T22:52:04.503Z,22.60
2018-07-13T22:54:33.480Z,22.59
2018-07-13T22:57:02.516Z,22.60
2018-07-13T22:59:31.500Z,22.62
2018-07-13T23:02:00.593Z,22.72
2018-07-13T23:04:29.570Z,22.75
2018-07-13T23:06:58.614Z,22.83
2018-07-13T23:09:27.589Z,22.86
2018-07-13T23:11:56.615Z,22.78
2018-07-13T23:14:25.658Z,22.65
2018-07-13T23:16:54.693Z,22.51
2018-07-13T23:19:23.724Z,22.40
2018-07-13T23:21:52.692Z,22.24
2018-07-13T23:24:36.360Z,22.14
2018-07-13T23:27:05.372Z,22.10
2018-07-13T23:29:34.445Z,22.04
2018-07-13T23:32:03.506Z,21.97
2018-07-13T23:34:32.464Z,21.86
2018-07-13T23:39:29.458Z,21.69
2018-07-13T23:41:58.504Z,21.62
2018-07-13T23:44:27.480Z,21.62
2018-07-13T23:46:56.498Z,21.58
2018-07-13T23:49:25.596Z,21.50
2018-07-13T23:51:54.650Z,21.54
2018-07-13T23:54:23.715Z,21.62
2018-07-13T23:56:52.836Z,21.64
2018-07-13T23:59:21.859Z,21.67
